createdAt,value
2019-05-16T00:00:49.430Z,6.50
2019-05-16T00:03:21.831Z,6.80
2019-05-16T00:05:54.766Z,5.63
2019-05-16T00:08:28.515Z,5.80
2019-05-16T00:11:00.622Z,5.43
2019-05-16T00:13:33.326Z,7.10
2019-05-16T00:16:05.216Z,5.93
2019-05-16T00:18:39.312Z,12.90
2019-05-16T00:21:11.227Z,7.97
2019-05-16T00:23:44.044Z,4.40
2019-05-16T00:26:19.821Z,4.43
2019-05-16T00:28:52.503Z,4.97
2019-05-16T00:31:25.178Z,4.70
2019-05-16T00:33:57.857Z,10.10
2019-05-16T00:36:29.463Z,4.90
2019-05-16T00:39:02.075Z,6.00
2019-05-16T00:41:35.814Z,6.80
2019-05-16T00:44:08.530Z,6.40
2019-05-16T00:46:41.239Z,4.87
2019-05-16T00:49:12.739Z,7.63
2019-05-16T00:51:48.026Z,6.40
2019-05-16T00:54:20.448Z,5.67
2019-05-16T00:56:51.909Z,6.87
2019-05-16T00:59:24.546Z,4.30
2019-05-16T01:01:58.786Z,5.47
2019-05-16T01:04:31.818Z,5.03
2019-05-16T01:07:03.667Z,5.63
2019-05-16T01:09:38.425Z,4.90
2019-05-16T01:12:11.707Z,6.67
2019-05-16T01:14:47.793Z,5.07
2019-05-16T01:17:19.806Z,5.30
2019-05-16T01:19:52.301Z,6.80
2019-05-16T01:22:24.622Z,6.17
2019-05-16T01:24:58.501Z,4.77
2019-05-16T01:27:30.515Z,5.50
2019-05-16T01:30:03.331Z,5.60
2019-05-16T01:32:38.530Z,5.93
2019-05-16T01:35:13.077Z,5.77
2019-05-16T01:37:44.510Z,5.10
2019-05-16T01:40:15.952Z,7.03
2019-05-16T01:42:48.995Z,9.67
2019-05-16T01:45:21.640Z,6.90
2019-05-16T01:47:54.343Z,4.50
2019-05-16T01:50:28.351Z,4.07
2019-05-16T01:53:01.258Z,9.23
2019-05-16T01:55:37.941Z,3.73
2019-05-16T01:58:11.110Z,4.00
2019-05-16T02:00:52.297Z,3.83
2019-05-16T02:03:18.968Z,7.83
2019-05-16T02:05:50.705Z,3.73
2019-05-16T02:08:23.387Z,4.67
2019-05-16T02:10:58.172Z,6.07
2019-05-16T02:13:31.389Z,5.40
2019-05-16T02:16:04.135Z,5.10
2019-05-16T02:18:38.039Z,5.50
2019-05-16T02:21:08.855Z,7.67
2019-05-16T02:23:42.983Z,6.87
2019-05-16T02:26:15.349Z,4.50
2019-05-16T02:28:46.824Z,5.97
2019-05-16T02:31:22.437Z,5.83
2019-05-16T02:33:51.683Z,5.17
2019-05-16T02:36:24.713Z,5.73
2019-05-16T02:38:57.500Z,3.67
2019-05-16T02:41:31.213Z,8.93
2019-05-16T02:44:05.764Z,7.43
2019-05-16T02:46:41.778Z,3.70
2019-05-16T02:49:13.210Z,6.03
2019-05-16T02:51:47.437Z,4.63
2019-05-16T02:54:21.806Z,4.57
2019-05-16T02:56:53.858Z,4.13
2019-05-16T02:59:25.601Z,4.83
2019-05-16T03:02:00.891Z,4.53
2019-05-16T03:04:32.580Z,5.37
2019-05-16T03:07:04.901Z,3.87
2019-05-16T03:09:41.031Z,4.80
2019-05-16T03:12:14.453Z,3.67
2019-05-16T03:14:50.405Z,7.17
2019-05-16T03:17:22.908Z,6.80
2019-05-16T03:20:01.148Z,3.40
2019-05-16T03:22:32.608Z,5.77
2019-05-16T03:25:04.355Z,4.97
2019-05-16T03:27:35.820Z,4.40
2019-05-16T03:30:14.434Z,3.87
2019-05-16T03:32:45.279Z,7.60
2019-05-16T03:35:19.358Z,5.10
2019-05-16T03:37:59.724Z,5.90
2019-05-16T03:40:31.443Z,3.00
2019-05-16T03:43:04.757Z,5.60
2019-05-16T03:45:41.713Z,4.03
2019-05-16T03:48:14.360Z,4.20
2019-05-16T03:50:47.032Z,3.80
2019-05-16T03:53:21.221Z,5.80
2019-05-16T03:55:54.788Z,5.53
2019-05-16T03:58:26.511Z,4.57
2019-05-16T04:01:02.354Z,5.50
2019-05-16T04:03:35.704Z,5.77
2019-05-16T04:06:11.539Z,6.53
2019-05-16T04:08:42.544Z,3.43
2019-05-16T04:11:17.728Z,7.33
2019-05-16T04:13:50.736Z,7.03
2019-05-16T04:16:24.023Z,5.43
2019-05-16T04:18:57.211Z,3.20
2019-05-16T04:21:32.362Z,5.07
2019-05-16T04:24:04.156Z,5.50
2019-05-16T04:26:36.180Z,3.67
2019-05-16T04:29:11.487Z,3.43
2019-05-16T04:31:41.803Z,7.50
2019-05-16T04:34:15.764Z,5.27
2019-05-16T04:36:51.212Z,4.67
2019-05-16T04:39:22.307Z,3.13
2019-05-16T04:41:53.169Z,3.40
2019-05-16T04:44:24.586Z,4.80
2019-05-16T04:46:56.968Z,5.50
2019-05-16T04:49:31.925Z,2.50
2019-05-16T04:52:03.314Z,4.00
2019-05-16T04:54:35.897Z,3.33
2019-05-16T04:57:11.903Z,4.07
2019-05-16T04:59:43.515Z,5.27
2019-05-16T05:02:16.761Z,5.50
2019-05-16T05:04:50.904Z,7.33
2019-05-16T05:07:23.913Z,6.73
2019-05-16T05:10:00.659Z,7.07
2019-05-16T05:12:34.664Z,4.80
2019-05-16T05:15:11.192Z,4.60
2019-05-16T05:17:44.158Z,5.97
2019-05-16T05:20:17.502Z,3.20
2019-05-16T05:22:51.418Z,2.63
2019-05-16T05:25:24.059Z,3.20
2019-05-16T05:27:56.399Z,5.37
2019-05-16T05:30:30.910Z,4.07
2019-05-16T05:33:03.314Z,5.77
2019-05-16T05:35:35.694Z,3.03
2019-05-16T05:38:07.237Z,6.50
2019-05-16T05:40:40.483Z,3.93
2019-05-16T05:43:14.216Z,4.40
2019-05-16T05:45:46.886Z,3.50
2019-05-16T05:48:21.170Z,5.77
2019-05-16T05:50:52.670Z,7.17
2019-05-16T05:53:24.014Z,5.00
2019-05-16T05:55:56.301Z,2.80
2019-05-16T05:58:30.776Z,4.70
2019-05-16T06:01:01.696Z,6.27
2019-05-16T06:03:36.115Z,6.97
2019-05-16T06:06:10.320Z,3.87
2019-05-16T06:08:42.508Z,4.93
2019-05-16T06:11:15.303Z,6.10
2019-05-16T06:13:49.798Z,5.07
2019-05-16T06:16:20.415Z,3.90
2019-05-16T06:18:56.753Z,7.20
2019-05-16T06:21:33.080Z,4.23
2019-05-16T06:24:02.989Z,6.53
2019-05-16T06:26:35.173Z,4.20
2019-05-16T06:29:10.385Z,6.30
2019-05-16T06:31:43.234Z,4.87
2019-05-16T06:34:15.530Z,4.97
2019-05-16T06:36:50.922Z,6.93
2019-05-16T06:39:22.694Z,4.17
2019-05-16T06:41:55.358Z,6.03
2019-05-16T06:44:27.790Z,3.83
2019-05-16T06:47:15.974Z,3.60
2019-05-16T06:49:33.698Z,3.23
2019-05-16T06:52:06.273Z,3.60
2019-05-16T06:54:55.401Z,4.50
2019-05-16T06:57:46.287Z,4.77
2019-05-16T07:00:35.702Z,5.73
2019-05-16T07:03:24.815Z,7.50
2019-05-16T07:06:29.576Z,7.87
2019-05-16T07:09:06.554Z,5.47
2019-05-16T07:11:56.409Z,7.13
2019-05-16T07:14:44.488Z,5.77
2019-05-16T07:17:34.264Z,8.93
2019-05-16T07:20:23.835Z,6.27
2019-05-16T07:23:13.542Z,5.10
2019-05-16T07:26:03.478Z,5.90
2019-05-16T07:28:51.772Z,5.60
2019-05-16T07:31:40.718Z,5.40
2019-05-16T07:34:30.972Z,4.30
2019-05-16T07:37:20.211Z,6.10
2019-05-16T07:40:19.192Z,7.20
2019-05-16T07:43:00.594Z,4.47
2019-05-16T07:45:51.266Z,7.63
2019-05-16T07:48:40.506Z,4.70
2019-05-16T07:51:31.059Z,4.50
2019-05-16T07:54:21.490Z,4.07
2019-05-16T07:57:19.127Z,5.37
2019-05-16T08:00:03.700Z,6.27
2019-05-16T08:02:53.073Z,4.33
2019-05-16T08:05:43.954Z,4.17
2019-05-16T08:08:33.258Z,3.97
2019-05-16T08:11:23.684Z,6.17
2019-05-16T08:14:11.879Z,5.37
2019-05-16T08:17:01.140Z,3.80
2019-05-16T08:19:50.621Z,7.77
2019-05-16T08:22:41.513Z,3.13
2019-05-16T08:25:31.348Z,5.57
2019-05-16T08:31:12.876Z,6.23
2019-05-16T08:34:02.035Z,4.10
2019-05-16T08:36:51.882Z,6.03
2019-05-16T08:39:41.451Z,4.23
2019-05-16T08:42:32.367Z,7.33
2019-05-16T08:45:21.274Z,5.63
2019-05-16T08:48:11.488Z,8.23
2019-05-16T08:51:02.951Z,5.27
2019-05-16T08:53:50.671Z,7.40
2019-05-16T08:56:43.783Z,6.10
2019-05-16T08:59:33.980Z,4.83
2019-05-16T09:02:24.584Z,4.50
2019-05-16T09:05:13.590Z,6.30
2019-05-16T09:08:01.614Z,5.20
2019-05-16T09:10:34.528Z,5.10
2019-05-16T09:11:00.817Z,5.43
2019-05-16T09:13:42.036Z,4.93
2019-05-16T09:16:30.518Z,7.00
2019-05-16T09:19:19.428Z,3.17
2019-05-16T09:22:07.852Z,4.50
2019-05-16T09:24:57.644Z,3.50
2019-05-16T09:27:47.049Z,3.03
2019-05-16T09:30:37.014Z,6.57
2019-05-16T09:33:27.135Z,2.93
2019-05-16T09:36:17.561Z,4.53
2019-05-16T09:39:08.685Z,5.73
2019-05-16T09:41:58.805Z,3.80
2019-05-16T09:44:49.333Z,4.07
2019-05-16T09:47:38.996Z,3.57
2019-05-16T09:50:29.673Z,5.97
2019-05-16T09:53:19.146Z,4.40
2019-05-16T09:56:27.154Z,3.53
2019-05-16T09:59:17.362Z,4.30
2019-05-16T10:02:07.991Z,3.97
2019-05-16T10:04:57.932Z,3.97
2019-05-16T10:07:49.771Z,3.83
2019-05-16T10:10:37.994Z,6.03
2019-05-16T10:13:27.715Z,4.63
2019-05-16T10:16:16.963Z,3.83
2019-05-16T10:19:07.465Z,5.20
2019-05-16T10:22:00.044Z,3.87
2019-05-16T10:24:46.837Z,5.07
2019-05-16T10:27:37.012Z,4.30
2019-05-16T10:30:26.941Z,5.07
2019-05-16T10:33:18.906Z,5.23
2019-05-16T10:36:08.469Z,8.23
2019-05-16T10:38:59.076Z,4.57
2019-05-16T10:41:47.604Z,6.33
2019-05-16T10:44:38.448Z,5.90
2019-05-16T10:47:28.736Z,11.40
2019-05-16T10:50:17.263Z,6.93
2019-05-16T10:53:23.817Z,4.17
2019-05-16T10:55:57.777Z,5.87
2019-05-16T10:59:10.567Z,7.30
2019-05-16T11:01:38.136Z,7.57
2019-05-16T11:04:42.169Z,5.07
2019-05-16T11:07:19.768Z,8.67
2019-05-16T11:10:08.503Z,4.43
2019-05-16T11:12:59.740Z,7.90
2019-05-16T11:15:50.645Z,4.50
2019-05-16T11:18:38.226Z,5.40
2019-05-16T11:21:26.712Z,5.17
2019-05-16T11:24:15.928Z,4.00
2019-05-16T11:27:04.022Z,5.37
2019-05-16T11:29:52.998Z,4.93
2019-05-16T11:32:41.186Z,8.67
2019-05-16T11:35:30.488Z,4.57
2019-05-16T11:38:21.511Z,4.80
2019-05-16T11:41:10.393Z,6.13
2019-05-16T11:43:59.154Z,6.57
2019-05-16T11:46:49.081Z,6.03
2019-05-16T11:49:39.802Z,9.03
2019-05-16T11:52:27.742Z,7.93
2019-05-16T11:55:16.668Z,9.70
2019-05-16T11:58:07.852Z,6.03
2019-05-16T12:00:57.552Z,6.77
2019-05-16T12:03:48.751Z,7.83
2019-05-16T12:06:37.424Z,5.93
2019-05-16T12:09:32.858Z,6.67
2019-05-16T12:12:20.488Z,8.80
2019-05-16T12:15:08.762Z,8.37
2019-05-16T12:18:02.108Z,8.70
2019-05-16T12:20:46.612Z,6.70
2019-05-16T12:23:37.207Z,7.30
2019-05-16T12:26:27.969Z,7.80
2019-05-16T12:29:17.134Z,8.33
2019-05-16T12:32:07.208Z,5.87
2019-05-16T12:34:56.854Z,6.13
2019-05-16T12:37:47.725Z,8.00
2019-05-16T12:40:37.403Z,10.30
2019-05-16T12:43:39.918Z,5.70
2019-05-16T12:46:14.817Z,5.40
2019-05-16T12:49:04.080Z,9.23
2019-05-16T12:51:53.232Z,8.40
2019-05-16T12:54:42.503Z,7.00
2019-05-16T12:57:32.145Z,6.70
2019-05-16T13:00:21.297Z,6.87
2019-05-16T13:03:09.837Z,7.47
2019-05-16T13:05:58.256Z,7.07
2019-05-16T13:08:47.334Z,6.77
2019-05-16T13:11:37.906Z,9.23
2019-05-16T13:14:27.982Z,11.00
2019-05-16T13:17:18.348Z,9.63
2019-05-16T13:20:07.851Z,7.67
2019-05-16T13:23:00.111Z,9.37
2019-05-16T13:25:48.343Z,7.67
2019-05-16T13:28:37.756Z,8.10
2019-05-16T13:31:28.642Z,9.57
2019-05-16T13:34:17.722Z,10.57
2019-05-16T13:37:08.023Z,10.00
2019-05-16T13:39:57.923Z,8.83
2019-05-16T13:42:48.836Z,8.93
2019-05-16T13:45:37.772Z,8.43
2019-05-16T13:48:27.229Z,9.33
2019-05-16T13:51:18.800Z,5.87
2019-05-16T13:54:07.079Z,7.80
2019-05-16T13:56:57.262Z,10.00
2019-05-16T13:59:45.316Z,6.37
2019-05-16T14:02:34.195Z,7.03
2019-05-16T14:05:26.766Z,6.07
2019-05-16T14:08:17.054Z,8.17
2019-05-16T14:11:08.923Z,4.83
2019-05-16T14:13:56.246Z,6.63
2019-05-16T14:16:43.589Z,5.23
2019-05-16T14:19:31.737Z,4.83
2019-05-16T14:22:20.750Z,4.87
2019-05-16T14:25:08.568Z,4.23
2019-05-16T14:27:57.900Z,5.50
2019-05-16T14:30:46.754Z,5.37
2019-05-16T14:33:36.707Z,6.73
2019-05-16T14:36:27.891Z,5.00
2019-05-16T14:39:18.904Z,6.43
2019-05-16T14:41:52.819Z,5.00
2019-05-16T14:44:28.521Z,7.47
2019-05-16T14:46:58.671Z,4.53
2019-05-16T14:49:30.065Z,6.20
2019-05-16T14:52:04.137Z,6.70
2019-05-16T14:54:37.783Z,8.70
2019-05-16T14:57:09.347Z,7.07
2019-05-16T14:59:40.692Z,8.17
2019-05-16T15:02:18.075Z,5.30
2019-05-16T15:04:49.991Z,5.33
2019-05-16T15:07:23.463Z,5.63
2019-05-16T15:09:56.621Z,4.70
2019-05-16T15:12:30.732Z,5.80
2019-05-16T15:15:17.106Z,6.97
2019-05-16T15:17:38.200Z,6.33
2019-05-16T15:20:11.416Z,7.90
2019-05-16T15:22:43.329Z,7.80
2019-05-16T15:25:17.428Z,7.03
2019-05-16T15:27:50.098Z,7.87
2019-05-16T15:30:25.069Z,8.00
2019-05-16T15:32:57.490Z,8.00
2019-05-16T15:35:30.543Z,5.23
2019-05-16T15:38:07.490Z,7.53
2019-05-16T15:40:38.675Z,7.87
2019-05-16T15:43:11.433Z,9.77
2019-05-16T15:45:49.009Z,6.30
2019-05-16T15:48:17.468Z,7.53
2019-05-16T15:50:48.382Z,6.70
2019-05-16T15:53:22.357Z,6.23
2019-05-16T15:55:57.592Z,6.33
2019-05-16T15:58:28.811Z,8.53
2019-05-16T16:01:01.199Z,5.87
2019-05-16T16:03:34.394Z,7.50
2019-05-16T16:06:09.288Z,6.60
2019-05-16T16:08:42.039Z,7.93
2019-05-16T16:11:17.167Z,7.43
2019-05-16T16:13:49.802Z,8.03
2019-05-16T16:16:22.398Z,5.60
2019-05-16T16:18:53.914Z,8.67
2019-05-16T16:21:27.439Z,10.00
2019-05-16T16:23:58.409Z,5.60
2019-05-16T16:26:29.398Z,5.90
2019-05-16T16:29:01.026Z,5.70
2019-05-16T16:31:33.918Z,7.77
2019-05-16T16:34:07.542Z,7.93
2019-05-16T16:36:39.234Z,5.83
2019-05-16T16:39:10.934Z,5.37
2019-05-16T16:41:43.382Z,6.90
2019-05-16T16:44:21.034Z,10.00
2019-05-16T16:46:52.466Z,6.63
2019-05-16T16:49:24.864Z,6.80
2019-05-16T16:51:58.395Z,8.23
2019-05-16T16:54:29.825Z,8.10
2019-05-16T16:57:02.347Z,7.57
2019-05-16T16:59:37.073Z,7.70
2019-05-16T17:02:08.783Z,5.77
2019-05-16T17:04:41.609Z,7.07
2019-05-16T17:07:16.753Z,8.40
2019-05-16T17:09:49.158Z,7.30
2019-05-16T17:12:20.534Z,5.90
2019-05-16T17:14:53.914Z,8.47
2019-05-16T17:17:26.699Z,5.10
2019-05-16T17:19:58.553Z,6.07
2019-05-16T17:22:30.941Z,7.33
2019-05-16T17:25:02.403Z,8.70
2019-05-16T17:27:37.702Z,5.30
2019-05-16T17:30:20.316Z,4.60
2019-05-16T17:32:51.259Z,9.33
2019-05-16T17:35:26.736Z,6.17
2019-05-16T17:37:57.490Z,5.80
2019-05-16T17:40:30.106Z,8.47
2019-05-16T17:43:00.873Z,6.97
2019-05-16T17:45:34.270Z,8.47
2019-05-16T17:48:07.458Z,6.50
2019-05-16T17:50:39.348Z,6.53
2019-05-16T17:53:12.058Z,9.77
2019-05-16T17:55:47.032Z,6.43
2019-05-16T17:58:19.126Z,8.43
2019-05-16T18:00:52.019Z,8.63
2019-05-16T18:03:26.838Z,6.07
2019-05-16T18:05:58.687Z,11.33
2019-05-16T18:08:33.269Z,6.00
2019-05-16T18:11:07.557Z,9.53
2019-05-16T18:13:41.718Z,7.67
2019-05-16T18:16:13.283Z,8.13
2019-05-16T18:18:46.875Z,5.87
2019-05-16T18:21:18.241Z,8.70
2019-05-16T18:23:50.529Z,7.93
2019-05-16T18:26:22.859Z,8.37
2019-05-16T18:28:54.274Z,8.30
2019-05-16T18:31:26.654Z,7.33
2019-05-16T18:33:59.998Z,7.53
2019-05-16T18:36:31.553Z,6.40
2019-05-16T18:39:06.419Z,8.20
2019-05-16T18:41:38.857Z,8.20
2019-05-16T18:44:11.367Z,11.67
2019-05-16T18:46:44.012Z,7.77
2019-05-16T18:49:16.554Z,6.23
2019-05-16T18:51:50.293Z,6.23
2019-05-16T18:54:26.645Z,9.67
2019-05-16T18:56:59.127Z,10.10
2019-05-16T18:59:33.640Z,7.77
2019-05-16T19:02:10.111Z,9.47
2019-05-16T19:04:39.981Z,8.23
2019-05-16T19:07:12.783Z,6.97
2019-05-16T19:09:45.476Z,9.77
2019-05-16T19:12:18.158Z,8.03
2019-05-16T19:14:49.348Z,8.73
2019-05-16T19:17:24.594Z,8.57
2019-05-16T19:19:54.325Z,11.63
2019-05-16T19:22:27.626Z,7.50
2019-05-16T19:24:59.392Z,12.97
2019-05-16T19:27:31.277Z,7.70
2019-05-16T19:30:03.174Z,13.40
2019-05-16T19:32:39.124Z,11.03
2019-05-16T19:35:10.523Z,8.10
2019-05-16T19:37:42.787Z,12.60
2019-05-16T19:40:17.168Z,11.47
2019-05-16T19:42:50.193Z,11.60
2019-05-16T19:45:23.647Z,8.67
2019-05-16T19:47:57.269Z,10.57
2019-05-16T19:50:29.458Z,12.53
2019-05-16T19:53:01.254Z,10.07
2019-05-16T19:55:36.381Z,14.37
2019-05-16T19:58:07.377Z,10.37
2019-05-16T20:00:41.559Z,13.50
2019-05-16T20:03:12.976Z,9.97
2019-05-16T20:05:47.559Z,16.80
2019-05-16T20:08:19.141Z,12.93
2019-05-16T20:10:51.537Z,10.63
2019-05-16T20:13:27.189Z,10.83
2019-05-16T20:15:59.234Z,13.20
2019-05-16T20:18:31.528Z,14.10
2019-05-16T20:21:04.211Z,10.57
2019-05-16T20:23:38.231Z,10.93
2019-05-16T20:26:12.856Z,14.93
2019-05-16T20:28:44.706Z,9.57
2019-05-16T20:31:18.858Z,13.77
2019-05-16T20:33:50.748Z,12.67
2019-05-16T20:36:23.675Z,12.63
2019-05-16T20:38:56.404Z,11.20
2019-05-16T20:41:29.149Z,10.13
2019-05-16T20:44:01.505Z,11.87
2019-05-16T20:46:33.340Z,12.70
2019-05-16T20:49:07.720Z,10.73
2019-05-16T20:51:41.571Z,14.03
2019-05-16T20:54:17.501Z,15.27
2019-05-16T20:56:49.697Z,14.33
2019-05-16T20:59:21.193Z,15.47
2019-05-16T21:01:53.910Z,18.07
2019-05-16T21:04:26.756Z,15.47
2019-05-16T21:07:07.032Z,14.53
2019-05-16T21:09:34.250Z,14.50
2019-05-16T21:12:08.291Z,13.27
2019-05-16T21:14:43.722Z,16.20
2019-05-16T21:17:17.416Z,14.00
2019-05-16T21:19:52.014Z,16.17
2019-05-16T21:22:23.498Z,14.17
2019-05-16T21:24:57.151Z,18.50
2019-05-16T21:27:32.979Z,17.20
2019-05-16T21:30:07.495Z,16.23
2019-05-16T21:32:40.053Z,14.57
2019-05-16T21:35:11.906Z,17.67
2019-05-16T21:37:46.774Z,14.30
2019-05-16T21:40:19.643Z,17.27
2019-05-16T21:42:51.437Z,17.10
2019-05-16T21:45:28.297Z,14.87
2019-05-16T21:47:59.402Z,19.57
2019-05-16T21:50:32.618Z,16.97
2019-05-16T21:53:07.306Z,20.23
2019-05-16T21:55:39.844Z,20.80
2019-05-16T21:58:12.191Z,18.37
2019-05-16T22:00:47.482Z,21.90
2019-05-16T22:03:20.554Z,23.20
2019-05-16T22:05:52.613Z,21.93
2019-05-16T22:08:24.138Z,24.97
2019-05-16T22:10:57.298Z,20.13
2019-05-16T22:13:30.077Z,24.40
2019-05-16T22:16:01.450Z,20.83
2019-05-16T22:18:33.866Z,24.37
2019-05-16T22:21:07.629Z,22.43
2019-05-16T22:23:39.823Z,25.23
2019-05-16T22:26:11.458Z,27.20
2019-05-16T22:28:46.688Z,22.70
2019-05-16T22:31:19.009Z,27.73
2019-05-16T22:33:51.824Z,23.83
2019-05-16T22:36:26.506Z,29.20
2019-05-16T22:38:59.689Z,28.60
2019-05-16T22:41:31.737Z,25.60
2019-05-16T22:44:08.552Z,29.63
2019-05-16T22:46:37.561Z,26.63
2019-05-16T22:49:09.409Z,31.93
2019-05-16T22:51:42.961Z,29.80
2019-05-16T22:54:17.209Z,26.47
2019-05-16T22:56:50.113Z,31.63
2019-05-16T22:59:23.761Z,25.70
2019-05-16T23:01:56.947Z,29.67
2019-05-16T23:04:28.889Z,25.43
2019-05-16T23:07:02.637Z,30.17
2019-05-16T23:09:36.570Z,31.43
2019-05-16T23:12:08.785Z,25.83
2019-05-16T23:14:40.218Z,33.33
2019-05-16T23:17:11.698Z,25.67
2019-05-16T23:19:43.559Z,34.00
2019-05-16T23:22:16.694Z,34.70
2019-05-16T23:24:49.272Z,27.60
2019-05-16T23:27:21.900Z,31.03
2019-05-16T23:29:53.918Z,26.90
2019-05-16T23:32:27.112Z,32.47
2019-05-16T23:34:59.870Z,31.10
2019-05-16T23:37:31.282Z,26.20
2019-05-16T23:40:06.205Z,32.80
2019-05-16T23:42:41.328Z,30.80
2019-05-16T23:45:14.076Z,28.37
2019-05-16T23:47:48.323Z,29.53
2019-05-16T23:50:23.470Z,24.47
2019-05-16T23:52:56.328Z,28.63
2019-05-16T23:55:29.331Z,24.10
2019-05-16T23:58:02.950Z,29.40
